sensor_id;sensor_type;location;lat;lon;timestamp;pressure;altitude;pressure_sealevel;temperature;humidity
43820;BME280;67762;52.476;6.046;2023-05-21T00:02:14;101950.09;;;14.74;64.96
43820;BME280;67762;52.476;6.046;2023-05-21T00:04:45;101945.56;;;14.74;65.06
43820;BME280;67762;52.476;6.046;2023-05-21T00:07:11;101944.72;;;14.74;64.91
43820;BME280;67762;52.476;6.046;2023-05-21T00:09:37;101939.50;;;14.72;65.18
43820;BME280;67762;52.476;6.046;2023-05-21T00:12:05;101929.78;;;14.71;64.79
43820;BME280;67762;52.476;6.046;2023-05-21T00:14:30;101929.91;;;14.70;65.40
43820;BME280;67762;52.476;6.046;2023-05-21T00:16:56;101931.94;;;14.68;65.46
43820;BME280;67762;52.476;6.046;2023-05-21T00:19:22;101928.25;;;14.69;65.57
43820;BME280;67762;52.476;6.046;2023-05-21T00:21:47;101939.81;;;14.69;65.89
43820;BME280;67762;52.476;6.046;2023-05-21T00:24:13;101928.25;;;14.69;65.66
43820;BME280;67762;52.476;6.046;2023-05-21T00:26:38;101931.94;;;14.68;65.97
43820;BME280;67762;52.476;6.046;2023-05-21T00:29:04;101926.72;;;14.66;66.03
43820;BME280;67762;52.476;6.046;2023-05-21T00:31:30;101925.06;;;14.65;65.92
43820;BME280;67762;52.476;6.046;2023-05-21T00:33:56;101912.94;;;14.61;66.03
43820;BME280;67762;52.476;6.046;2023-05-21T00:36:22;101922.69;;;14.62;66.69
43820;BME280;67762;52.476;6.046;2023-05-21T00:38:49;101914.97;;;14.59;66.06
43820;BME280;67762;52.476;6.046;2023-05-21T00:41:15;101920.34;;;14.59;66.35
43820;BME280;67762;52.476;6.046;2023-05-21T00:43:41;101915.94;;;14.58;66.66
43820;BME280;67762;52.476;6.046;2023-05-21T00:46:13;101900.69;;;14.58;66.76
43820;BME280;67762;52.476;6.046;2023-05-21T00:48:42;101913.13;;;14.59;67.06
43820;BME280;67762;52.476;6.046;2023-05-21T00:51:09;101906.56;;;14.62;66.88
43820;BME280;67762;52.476;6.046;2023-05-21T00:53:35;101903.88;;;14.62;67.14
43820;BME280;67762;52.476;6.046;2023-05-21T00:56:01;101901.34;;;14.60;67.35
43820;BME280;67762;52.476;6.046;2023-05-21T00:58:28;101898.00;;;14.58;67.62
43820;BME280;67762;52.476;6.046;2023-05-21T01:00:54;101912.28;;;14.59;67.68
43820;BME280;67762;52.476;6.046;2023-05-21T01:03:21;101911.44;;;14.58;67.86
43820;BME280;67762;52.476;6.046;2023-05-21T01:05:49;101913.25;;;14.58;67.86
43820;BME280;67762;52.476;6.046;2023-05-21T01:08:15;101911.59;;;14.57;67.64
43820;BME280;67762;52.476;6.046;2023-05-21T01:10:42;101914.44;;;14.55;67.96
43820;BME280;67762;52.476;6.046;2023-05-21T01:13:08;101905.72;;;14.53;68.24
43820;BME280;67762;52.476;6.046;2023-05-21T01:15:34;101903.34;;;14.50;68.06
43820;BME280;67762;52.476;6.046;2023-05-21T01:18:02;101905.38;;;14.48;68.26
43820;BME280;67762;52.476;6.046;2023-05-21T01:20:28;101907.53;;;14.45;68.30
43820;BME280;67762;52.476;6.046;2023-05-21T01:22:56;101894.59;;;14.40;68.54
43820;BME280;67762;52.476;6.046;2023-05-21T01:25:23;101893.41;;;14.35;68.63
43820;BME280;67762;52.476;6.046;2023-05-21T01:27:50;101893.72;;;14.32;68.93
43820;BME280;67762;52.476;6.046;2023-05-21T01:30:16;101894.88;;;14.29;69.01
43820;BME280;67762;52.476;6.046;2023-05-21T01:35:25;101883.94;;;14.23;69.56
43820;BME280;67762;52.476;6.046;2023-05-21T01:40:52;101888.94;;;14.18;69.57
43820;BME280;67762;52.476;6.046;2023-05-21T01:43:19;101886.94;;;14.20;69.83
43820;BME280;67762;52.476;6.046;2023-05-21T01:45:46;101880.88;;;14.18;69.63
43820;BME280;67762;52.476;6.046;2023-05-21T01:48:12;101883.72;;;14.16;69.93
43820;BME280;67762;52.476;6.046;2023-05-21T01:50:39;101880.38;;;14.14;69.92
43820;BME280;67762;52.476;6.046;2023-05-21T01:53:06;101886.59;;;14.15;70.35
43820;BME280;67762;52.476;6.046;2023-05-21T01:55:32;101878.72;;;14.13;70.86
43820;BME280;67762;52.476;6.046;2023-05-21T01:57:58;101881.53;;;14.12;70.50
43820;BME280;67762;52.476;6.046;2023-05-21T02:00:25;101877.16;;;14.11;70.80
43820;BME280;67762;52.476;6.046;2023-05-21T02:02:53;101877.34;;;14.09;70.74
43820;BME280;67762;52.476;6.046;2023-05-21T02:05:19;101876.16;;;14.12;71.38
43820;BME280;67762;52.476;6.046;2023-05-21T02:07:46;101875.19;;;14.13;70.54
43820;BME280;67762;52.476;6.046;2023-05-21T02:10:11;101870.47;;;14.15;70.71
43820;BME280;67762;52.476;6.046;2023-05-21T02:12:37;101879.38;;;14.15;70.71
43820;BME280;67762;52.476;6.046;2023-05-21T02:15:03;101867.63;;;14.16;70.73
43820;BME280;67762;52.476;6.046;2023-05-21T02:17:30;101869.97;;;14.19;70.98
43820;BME280;67762;52.476;6.046;2023-05-21T02:20:00;101863.78;;;14.19;71.08
43820;BME280;67762;52.476;6.046;2023-05-21T02:22:39;101863.78;;;14.19;71.09
43820;BME280;67762;52.476;6.046;2023-05-21T02:25:06;101866.63;;;14.17;71.17
43820;BME280;67762;52.476;6.046;2023-05-21T02:27:32;101871.31;;;14.15;71.24
43820;BME280;67762;52.476;6.046;2023-05-21T02:30:00;101872.00;;;14.17;71.61
43820;BME280;67762;52.476;6.046;2023-05-21T02:32:25;101871.16;;;14.17;71.56
43820;BME280;67762;52.476;6.046;2023-05-21T02:34:51;101872.16;;;14.16;71.99
43820;BME280;67762;52.476;6.046;2023-05-21T02:37:18;101871.31;;;14.15;71.90
43820;BME280;67762;52.476;6.046;2023-05-21T02:39:44;101868.63;;;14.15;71.79
43820;BME280;67762;52.476;6.046;2023-05-21T02:42:10;101871.16;;;14.17;71.92
43820;BME280;67762;52.476;6.046;2023-05-21T02:44:35;101861.44;;;14.16;71.84
43820;BME280;67762;52.476;6.046;2023-05-21T02:47:01;101860.59;;;14.15;72.01
43820;BME280;67762;52.476;6.046;2023-05-21T02:49:27;101865.97;;;14.15;72.35
43820;BME280;67762;52.476;6.046;2023-05-21T02:51:52;101859.75;;;14.15;72.37
43820;BME280;67762;52.476;6.046;2023-05-21T02:54:19;101868.63;;;14.15;72.37
43820;BME280;67762;52.476;6.046;2023-05-21T02:56:45;101865.97;;;14.15;72.40
43820;BME280;67762;52.476;6.046;2023-05-21T02:59:11;101866.81;;;14.16;72.36
43820;BME280;67762;52.476;6.046;2023-05-21T03:01:37;101864.13;;;14.16;72.35
43820;BME280;67762;52.476;6.046;2023-05-21T03:04:03;101865.97;;;14.15;72.69
43820;BME280;67762;52.476;6.046;2023-05-21T03:06:28;101861.56;;;14.14;72.91
43820;BME280;67762;52.476;6.046;2023-05-21T03:08:56;101863.59;;;14.12;72.91
43820;BME280;67762;52.476;6.046;2023-05-21T03:11:21;101861.75;;;14.13;73.11
43820;BME280;67762;52.476;6.046;2023-05-21T03:13:47;101860.06;;;14.12;73.28
43820;BME280;67762;52.476;6.046;2023-05-21T03:16:13;101864.44;;;14.13;73.10
43820;BME280;67762;52.476;6.046;2023-05-21T03:18:38;101856.53;;;14.11;73.16
43820;BME280;67762;52.476;6.046;2023-05-21T03:21:04;101859.38;;;14.10;73.42
43820;BME280;67762;52.476;6.046;2023-05-21T03:23:30;101859.22;;;14.11;73.32
43820;BME280;67762;52.476;6.046;2023-05-21T03:25:56;101861.06;;;14.11;73.42
43820;BME280;67762;52.476;6.046;2023-05-21T03:28:22;101863.72;;;14.11;73.42
43820;BME280;67762;52.476;6.046;2023-05-21T03:30:49;101864.44;;;14.13;73.53
43820;BME280;67762;52.476;6.046;2023-05-21T03:33:33;101866.09;;;14.14;73.50
43820;BME280;67762;52.476;6.046;2023-05-21T03:36:04;101858.22;;;14.12;73.48
43820;BME280;67762;52.476;6.046;2023-05-21T03:38:34;101870.47;;;14.15;73.60
43820;BME280;67762;52.476;6.046;2023-05-21T03:41:00;101857.06;;;14.15;73.96
43820;BME280;67762;52.476;6.046;2023-05-21T03:43:26;101859.06;;;14.13;73.90
43820;BME280;67762;52.476;6.046;2023-05-21T03:45:53;101854.53;;;14.13;73.52
43820;BME280;67762;52.476;6.046;2023-05-21T03:48:50;101852.00;;;14.12;73.88
43820;BME280;67762;52.476;6.046;2023-05-21T03:51:20;101851.16;;;14.11;73.85
43820;BME280;67762;52.476;6.046;2023-05-21T03:53:45;101845.97;;;14.10;74.25
43820;BME280;67762;52.476;6.046;2023-05-21T03:56:11;101849.66;;;14.08;74.37
43820;BME280;67762;52.476;6.046;2023-05-21T03:58:37;101856.72;;;14.10;74.25
43820;BME280;67762;52.476;6.046;2023-05-21T04:01:03;101857.69;;;14.08;74.41
43820;BME280;67762;52.476;6.046;2023-05-21T04:03:30;101863.06;;;14.08;74.60
43820;BME280;67762;52.476;6.046;2023-05-21T04:05:57;101849.50;;;14.10;74.58
43820;BME280;67762;52.476;6.046;2023-05-21T04:08:23;101856.38;;;14.13;74.47
43820;BME280;67762;52.476;6.046;2023-05-21T04:10:48;101859.75;;;14.15;74.50
43820;BME280;67762;52.476;6.046;2023-05-21T04:13:14;101866.63;;;14.17;74.38
43820;BME280;67762;52.476;6.046;2023-05-21T04:15:40;101858.44;;;14.19;74.35
43820;BME280;67762;52.476;6.046;2023-05-21T04:18:07;101863.09;;;14.17;74.32
43820;BME280;67762;52.476;6.046;2023-05-21T04:20:33;101858.44;;;14.19;74.64
43820;BME280;67762;52.476;6.046;2023-05-21T04:22:59;101858.25;;;14.20;74.41
43820;BME280;67762;52.476;6.046;2023-05-21T04:25:25;101863.44;;;14.22;74.67
43820;BME280;67762;52.476;6.046;2023-05-21T04:27:51;101861.78;;;14.21;74.21
43820;BME280;67762;52.476;6.046;2023-05-21T04:30:19;101865.97;;;14.23;74.30
43820;BME280;67762;52.476;6.046;2023-05-21T04:32:45;101874.03;;;14.23;74.12
43820;BME280;67762;52.476;6.046;2023-05-21T04:35:12;101871.34;;;14.23;74.25
43820;BME280;67762;52.476;6.046;2023-05-21T04:37:39;101861.59;;;14.22;74.39
43820;BME280;67762;52.476;6.046;2023-05-21T04:40:08;101860.09;;;14.20;74.36
43820;BME280;67762;52.476;6.046;2023-05-21T04:42:34;101864.59;;;14.19;74.41
43820;BME280;67762;52.476;6.046;2023-05-21T04:45:01;101863.94;;;14.17;74.44
43820;BME280;67762;52.476;6.046;2023-05-21T04:47:29;101865.09;;;14.15;74.53
43820;BME280;67762;52.476;6.046;2023-05-21T04:50:01;101861.75;;;14.13;74.58
43820;BME280;67762;52.476;6.046;2023-05-21T04:52:26;101855.84;;;14.09;74.61
43820;BME280;67762;52.476;6.046;2023-05-21T04:54:52;101854.88;;;14.10;74.39
43820;BME280;67762;52.476;6.046;2023-05-21T04:57:18;101863.72;;;14.11;74.42
43820;BME280;67762;52.476;6.046;2023-05-21T04:59:44;101864.59;;;14.11;74.70
43820;BME280;67762;52.476;6.046;2023-05-21T05:02:11;101863.09;;;14.17;74.72
43820;BME280;67762;52.476;6.046;2023-05-21T05:04:38;101860.94;;;14.20;74.73
43820;BME280;67762;52.476;6.046;2023-05-21T05:07:04;101869.84;;;14.29;74.49
43820;BME280;67762;52.476;6.046;2023-05-21T05:09:30;101861.19;;;14.35;74.34
43820;BME280;67762;52.476;6.046;2023-05-21T05:11:56;101872.63;;;14.45;74.16
43820;BME280;67762;52.476;6.046;2023-05-21T05:14:23;101865.75;;;14.50;73.95
43820;BME280;67762;52.476;6.046;2023-05-21T05:16:49;101870.78;;;14.53;73.78
43820;BME280;67762;52.476;6.046;2023-05-21T05:19:14;101862.22;;;14.58;73.35
43820;BME280;67762;52.476;6.046;2023-05-21T05:21:40;101857.56;;;14.60;73.65
43820;BME280;67762;52.476;6.046;2023-05-21T05:24:06;101865.44;;;14.61;73.39
43820;BME280;67762;52.476;6.046;2023-05-21T05:26:31;101868.47;;;14.67;73.18
43820;BME280;67762;52.476;6.046;2023-05-21T05:28:57;101861.25;;;14.67;73.08
43820;BME280;67762;52.476;6.046;2023-05-21T05:31:23;101860.25;;;14.68;73.23
43820;BME280;67762;52.476;6.046;2023-05-21T05:33:48;101863.59;;;14.70;72.96
43820;BME280;67762;52.476;6.046;2023-05-21T05:36:14;101861.59;;;14.72;73.27
43820;BME280;67762;52.476;6.046;2023-05-21T05:38:40;101866.47;;;14.77;72.90
43820;BME280;67762;52.476;6.046;2023-05-21T05:41:06;101860.06;;;14.78;72.77
43820;BME280;67762;52.476;6.046;2023-05-21T05:43:32;101856.91;;;14.74;72.90
43820;BME280;67762;52.476;6.046;2023-05-21T05:45:58;101859.41;;;14.76;72.62
43820;BME280;67762;52.476;6.046;2023-05-21T05:48:24;101856.22;;;14.80;72.67
43820;BME280;67762;52.476;6.046;2023-05-21T05:50:50;101857.41;;;14.78;72.78
43820;BME280;67762;52.476;6.046;2023-05-21T05:53:19;101858.41;;;14.77;72.74
43820;BME280;67762;52.476;6.046;2023-05-21T05:55:44;101854.56;;;14.79;72.69
43820;BME280;67762;52.476;6.046;2023-05-21T05:58:10;101854.38;;;14.81;72.44
43820;BME280;67762;52.476;6.046;2023-05-21T06:00:53;101858.56;;;14.83;72.64
43820;BME280;67762;52.476;6.046;2023-05-21T06:03:19;101858.56;;;14.83;72.69
43820;BME280;67762;52.476;6.046;2023-05-21T06:05:44;101853.38;;;14.82;72.67
43820;BME280;67762;52.476;6.046;2023-05-21T06:08:10;101852.53;;;14.81;72.76
43820;BME280;67762;52.476;6.046;2023-05-21T06:10:36;101852.34;;;14.83;72.68
43820;BME280;67762;52.476;6.046;2023-05-21T06:13:02;101856.06;;;14.82;72.69
43820;BME280;67762;52.476;6.046;2023-05-21T06:15:28;101849.19;;;14.87;72.58
43820;BME280;67762;52.476;6.046;2023-05-21T06:17:54;101853.72;;;14.95;72.63
43820;BME280;67762;52.476;6.046;2023-05-21T06:20:20;101846.31;;;14.97;72.50
43820;BME280;67762;52.476;6.046;2023-05-21T06:22:45;101852.06;;;15.02;72.53
43820;BME280;67762;52.476;6.046;2023-05-21T06:25:11;101855.22;;;15.05;71.96
43820;BME280;67762;52.476;6.046;2023-05-21T06:27:40;101849.19;;;15.11;71.67
43820;BME280;67762;52.476;6.046;2023-05-21T06:30:13;101859.59;;;15.22;71.96
43820;BME280;67762;52.476;6.046;2023-05-21T06:32:38;101850.50;;;15.32;71.82
43820;BME280;67762;52.476;6.046;2023-05-21T06:35:07;101850.16;;;15.43;71.61
43820;BME280;67762;52.476;6.046;2023-05-21T06:37:33;101842.25;;;15.57;70.57
43820;BME280;67762;52.476;6.046;2023-05-21T06:39:59;101843.75;;;15.68;70.98
43820;BME280;67762;52.476;6.046;2023-05-21T06:42:24;101847.38;;;15.83;70.75
43820;BME280;67762;52.476;6.046;2023-05-21T06:45:10;101846.53;;;15.91;70.12
43820;BME280;67762;52.476;6.046;2023-05-21T06:47:37;101839.25;;;15.99;69.66
43820;BME280;67762;52.476;6.046;2023-05-21T06:50:03;101834.00;;;16.06;69.72
43820;BME280;67762;52.476;6.046;2023-05-21T06:52:29;101831.63;;;16.11;69.44
43820;BME280;67762;52.476;6.046;2023-05-21T06:54:56;101828.16;;;16.25;68.94
43820;BME280;67762;52.476;6.046;2023-05-21T06:57:23;101831.75;;;16.48;68.29
43820;BME280;67762;52.476;6.046;2023-05-21T06:59:50;101824.72;;;16.70;68.02
43820;BME280;67762;52.476;6.046;2023-05-21T07:02:15;101827.47;;;16.84;68.06
43820;BME280;67762;52.476;6.046;2023-05-21T07:04:41;101835.78;;;16.98;67.26
43820;BME280;67762;52.476;6.046;2023-05-21T07:07:07;101823.91;;;17.07;67.04
43820;BME280;67762;52.476;6.046;2023-05-21T07:09:33;101824.56;;;17.09;66.93
43820;BME280;67762;52.476;6.046;2023-05-21T07:11:58;101825.56;;;17.08;65.82
43820;BME280;67762;52.476;6.046;2023-05-21T07:14:24;101819.72;;;17.19;66.01
43820;BME280;67762;52.476;6.046;2023-05-21T07:16:51;101816.06;;;17.34;65.79
43820;BME280;67762;52.476;6.046;2023-05-21T07:19:17;101813.72;;;17.31;65.07
43820;BME280;67762;52.476;6.046;2023-05-21T07:21:43;101825.00;;;17.35;65.22
43820;BME280;67762;52.476;6.046;2023-05-21T07:24:09;101823.69;;;17.45;65.58
43820;BME280;67762;52.476;6.046;2023-05-21T07:26:37;101823.22;;;17.42;64.78
43820;BME280;67762;52.476;6.046;2023-05-21T07:29:03;101833.16;;;17.41;65.35
43820;BME280;67762;52.476;6.046;2023-05-21T07:31:29;101830.75;;;17.46;64.88
43820;BME280;67762;52.476;6.046;2023-05-21T07:33:54;101830.31;;;17.58;64.44
43820;BME280;67762;52.476;6.046;2023-05-21T07:36:25;101823.81;;;17.67;64.31
43820;BME280;67762;52.476;6.046;2023-05-21T07:38:51;101836.47;;;17.66;63.82
43820;BME280;67762;52.476;6.046;2023-05-21T07:41:17;101824.66;;;17.67;62.98
43820;BME280;67762;52.476;6.046;2023-05-21T07:43:43;101828.75;;;17.63;63.14
43820;BME280;67762;52.476;6.046;2023-05-21T07:46:09;101838.72;;;17.77;63.91
43820;BME280;67762;52.476;6.046;2023-05-21T07:48:34;101831.25;;;17.94;63.48
43820;BME280;67762;52.476;6.046;2023-05-21T07:51:01;101826.47;;;18.10;63.47
43820;BME280;67762;52.476;6.046;2023-05-21T07:53:29;101818.78;;;18.07;62.16
43820;BME280;67762;52.476;6.046;2023-05-21T07:55:58;101828.41;;;18.31;62.95
43820;BME280;67762;52.476;6.046;2023-05-21T07:58:27;101816.25;;;18.56;62.63
43820;BME280;67762;52.476;6.046;2023-05-21T08:00:53;101810.56;;;18.73;61.47
43820;BME280;67762;52.476;6.046;2023-05-21T08:03:19;101799.19;;;18.56;60.63
43820;BME280;67762;52.476;6.046;2023-05-21T08:05:45;101801.88;;;18.56;61.36
43820;BME280;67762;52.476;6.046;2023-05-21T08:08:19;101803.81;;;18.62;61.23
43820;BME280;67762;52.476;6.046;2023-05-21T08:10:47;101804.91;;;18.67;61.34
43820;BME280;67762;52.476;6.046;2023-05-21T08:13:15;101805.22;;;18.79;60.87
43820;BME280;67762;52.476;6.046;2023-05-21T08:15:41;101800.25;;;18.83;60.72
43820;BME280;67762;52.476;6.046;2023-05-21T08:18:07;101795.91;;;18.82;60.44
43820;BME280;67762;52.476;6.046;2023-05-21T08:20:34;101801.47;;;18.80;60.43
43820;BME280;67762;52.476;6.046;2023-05-21T08:23:00;101801.41;;;18.95;60.69
43820;BME280;67762;52.476;6.046;2023-05-21T08:25:28;101798.16;;;19.06;60.20
43820;BME280;67762;52.476;6.046;2023-05-21T08:27:55;101805.97;;;19.15;59.88
43820;BME280;67762;52.476;6.046;2023-05-21T08:30:21;101798.72;;;19.22;60.27
43820;BME280;67762;52.476;6.046;2023-05-21T08:32:47;101797.09;;;19.28;59.59
43820;BME280;67762;52.476;6.046;2023-05-21T08:35:15;101790.88;;;19.34;59.71
43820;BME280;67762;52.476;6.046;2023-05-21T08:37:57;101797.03;;;19.49;59.67
43820;BME280;67762;52.476;6.046;2023-05-21T08:40:45;101798.41;;;19.66;59.31
43820;BME280;67762;52.476;6.046;2023-05-21T08:43:12;101794.75;;;19.87;59.04
43820;BME280;67762;52.476;6.046;2023-05-21T08:45:44;101789.75;;;19.84;58.32
43820;BME280;67762;52.476;6.046;2023-05-21T08:48:15;101801.31;;;19.71;57.77
43820;BME280;67762;52.476;6.046;2023-05-21T08:50:42;101804.31;;;19.83;57.99
43820;BME280;67762;52.476;6.046;2023-05-21T08:53:14;101795.69;;;20.07;57.73
43820;BME280;67762;52.476;6.046;2023-05-21T08:55:40;101797.34;;;20.08;57.78
43820;BME280;67762;52.476;6.046;2023-05-21T08:58:08;101798.50;;;19.86;56.75
43820;BME280;67762;52.476;6.046;2023-05-21T09:00:34;101793.47;;;19.83;57.05
43820;BME280;67762;52.476;6.046;2023-05-21T09:03:00;101796.66;;;19.93;57.29
43820;BME280;67762;52.476;6.046;2023-05-21T09:05:27;101796.50;;;20.08;57.19
43820;BME280;67762;52.476;6.046;2023-05-21T09:08:18;101805.81;;;19.92;56.81
43820;BME280;67762;52.476;6.046;2023-05-21T09:10:57;101799.41;;;20.06;57.65
43820;BME280;67762;52.476;6.046;2023-05-21T09:13:30;101800.59;;;20.31;57.00
43820;BME280;67762;52.476;6.046;2023-05-21T09:15:56;101801.41;;;20.25;55.94
43820;BME280;67762;52.476;6.046;2023-05-21T09:18:23;101800.47;;;20.12;56.38
43820;BME280;67762;52.476;6.046;2023-05-21T09:21:23;101795.25;;;20.04;56.73
43820;BME280;67762;52.476;6.046;2023-05-21T09:23:57;101796.91;;;20.05;56.53
43820;BME280;67762;52.476;6.046;2023-05-21T09:26:24;101790.16;;;20.28;56.49
43820;BME280;67762;52.476;6.046;2023-05-21T09:28:58;101791.81;;;20.29;55.69
43820;BME280;67762;52.476;6.046;2023-05-21T09:31:25;101787.19;;;20.23;55.64
43820;BME280;67762;52.476;6.046;2023-05-21T09:33:54;101781.94;;;20.22;56.19
43820;BME280;67762;52.476;6.046;2023-05-21T09:36:21;101790.56;;;20.25;55.97
43820;BME280;67762;52.476;6.046;2023-05-21T09:38:47;101789.53;;;20.33;55.98
43820;BME280;67762;52.476;6.046;2023-05-21T09:41:13;101778.50;;;20.34;56.26
43820;BME280;67762;52.476;6.046;2023-05-21T09:43:42;101783.69;;;20.36;55.50
43820;BME280;67762;52.476;6.046;2023-05-21T09:46:09;101781.47;;;20.66;55.97
43820;BME280;67762;52.476;6.046;2023-05-21T09:48:40;101782.75;;;21.09;55.06
43820;BME280;67762;52.476;6.046;2023-05-21T09:51:14;101784.38;;;21.30;54.79
43820;BME280;67762;52.476;6.046;2023-05-21T09:53:51;101777.81;;;21.64;54.20
43820;BME280;67762;52.476;6.046;2023-05-21T09:56:24;101774.22;;;21.89;52.87
43820;BME280;67762;52.476;6.046;2023-05-21T09:58:52;101781.25;;;22.03;52.89
43820;BME280;67762;52.476;6.046;2023-05-21T10:01:19;61604.63;;;-141.99;100.00
43820;BME280;67762;52.476;6.046;2023-05-21T10:03:49;61604.63;;;-141.99;100.00
43820;BME280;67762;52.476;6.046;2023-05-21T10:06:16;61604.63;;;-141.99;100.00
43820;BME280;67762;52.476;6.046;2023-05-21T10:08:44;61604.63;;;-141.99;100.00
43820;BME280;67762;52.476;6.046;2023-05-21T10:11:13;61604.63;;;-141.99;100.00
43820;BME280;67762;52.476;6.046;2023-05-21T10:13:43;61604.63;;;-141.99;100.00
43820;BME280;67762;52.476;6.046;2023-05-21T10:16:09;61604.63;;;-141.99;100.00
43820;BME280;67762;52.476;6.046;2023-05-21T10:18:36;61604.63;;;-141.99;100.00
43820;BME280;67762;52.476;6.046;2023-05-21T10:21:03;61604.63;;;-141.99;100.00
43820;BME280;67762;52.476;6.046;2023-05-21T10:23:33;61604.63;;;-141.99;100.00
43820;BME280;67762;52.476;6.046;2023-05-21T10:26:00;61604.63;;;-141.99;100.00
43820;BME280;67762;52.476;6.046;2023-05-21T10:28:28;61604.63;;;-141.99;100.00
43820;BME280;67762;52.476;6.046;2023-05-21T10:30:54;61604.63;;;-141.99;100.00
43820;BME280;67762;52.476;6.046;2023-05-21T10:33:21;61604.63;;;-141.99;100.00
43820;BME280;67762;52.476;6.046;2023-05-21T10:35:48;61604.63;;;-141.99;100.00
43820;BME280;67762;52.476;6.046;2023-05-21T10:38:17;61604.63;;;-141.99;100.00
43820;BME280;67762;52.476;6.046;2023-05-21T10:40:43;61604.63;;;-141.99;100.00
43820;BME280;67762;52.476;6.046;2023-05-21T10:43:31;61604.63;;;-141.99;100.00
43820;BME280;67762;52.476;6.046;2023-05-21T10:59:49;61604.63;;;-141.99;100.00
43820;BME280;67762;52.476;6.046;2023-05-21T11:02:25;61604.63;;;-141.99;100.00
43820;BME280;67762;52.476;6.046;2023-05-21T11:05:00;61604.63;;;-141.99;100.00
43820;BME280;67762;52.476;6.046;2023-05-21T11:07:55;61604.63;;;-141.99;100.00
43820;BME280;67762;52.476;6.046;2023-05-21T11:10:35;61604.63;;;-141.99;100.00
43820;BME280;67762;52.476;6.046;2023-05-21T11:13:28;61604.63;;;-141.99;100.00
43820;BME280;67762;52.476;6.046;2023-05-21T11:23:51;61604.63;;;-141.99;100.00
43820;BME280;67762;52.476;6.046;2023-05-21T11:26:17;61604.63;;;-141.99;100.00
43820;BME280;67762;52.476;6.046;2023-05-21T11:28:43;61604.63;;;-141.99;100.00
43820;BME280;67762;52.476;6.046;2023-05-21T11:31:24;61604.63;;;-141.99;100.00
43820;BME280;67762;52.476;6.046;2023-05-21T11:36:39;61604.63;;;-141.99;100.00
43820;BME280;67762;52.476;6.046;2023-05-21T11:39:10;61604.63;;;-141.99;100.00
43820;BME280;67762;52.476;6.046;2023-05-21T11:42:00;61604.63;;;-141.99;100.00
43820;BME280;67762;52.476;6.046;2023-05-21T11:44:43;61604.63;;;-141.99;100.00
43820;BME280;67762;52.476;6.046;2023-05-21T11:47:10;61604.63;;;-141.99;100.00
43820;BME280;67762;52.476;6.046;2023-05-21T11:49:37;61604.63;;;-141.99;100.00
43820;BME280;67762;52.476;6.046;2023-05-21T11:52:05;61604.63;;;-141.99;100.00
43820;BME280;67762;52.476;6.046;2023-05-21T11:54:31;61604.63;;;-141.99;100.00
43820;BME280;67762;52.476;6.046;2023-05-21T11:57:02;61604.63;;;-141.99;100.00
43820;BME280;67762;52.476;6.046;2023-05-21T11:59:30;61604.63;;;-141.99;100.00
43820;BME280;67762;52.476;6.046;2023-05-21T12:01:57;61604.63;;;-141.99;100.00
43820;BME280;67762;52.476;6.046;2023-05-21T12:04:28;61604.63;;;-141.99;100.00
43820;BME280;67762;52.476;6.046;2023-05-21T12:06:54;61604.63;;;-141.99;100.00
43820;BME280;67762;52.476;6.046;2023-05-21T12:09:23;61604.63;;;-141.99;100.00
43820;BME280;67762;52.476;6.046;2023-05-21T12:11:49;61604.63;;;-141.99;100.00
43820;BME280;67762;52.476;6.046;2023-05-21T12:14:16;61604.63;;;-141.99;100.00
43820;BME280;67762;52.476;6.046;2023-05-21T12:16:42;61604.63;;;-141.99;100.00
43820;BME280;67762;52.476;6.046;2023-05-21T12:19:08;61604.63;;;-141.99;100.00
43820;BME280;67762;52.476;6.046;2023-05-21T12:21:34;61604.63;;;-141.99;100.00
43820;BME280;67762;52.476;6.046;2023-05-21T12:24:01;61604.63;;;-141.99;100.00
43820;BME280;67762;52.476;6.046;2023-05-21T12:26:27;61604.63;;;-141.99;100.00
43820;BME280;67762;52.476;6.046;2023-05-21T12:28:54;61604.63;;;-141.99;100.00
43820;BME280;67762;52.476;6.046;2023-05-21T12:31:23;61604.63;;;-141.99;100.00
43820;BME280;67762;52.476;6.046;2023-05-21T12:33:52;61604.63;;;-141.99;100.00
43820;BME280;67762;52.476;6.046;2023-05-21T12:36:29;61604.63;;;-141.99;100.00
43820;BME280;67762;52.476;6.046;2023-05-21T12:38:56;61604.63;;;-141.99;100.00
43820;BME280;67762;52.476;6.046;2023-05-21T12:41:22;61604.63;;;-141.99;100.00
43820;BME280;67762;52.476;6.046;2023-05-21T12:43:49;61604.63;;;-141.99;100.00
43820;BME280;67762;52.476;6.046;2023-05-21T12:46:15;61604.63;;;-141.99;100.00
43820;BME280;67762;52.476;6.046;2023-05-21T12:49:02;61604.63;;;-141.99;100.00
43820;BME280;67762;52.476;6.046;2023-05-21T12:51:38;61604.63;;;-141.99;100.00
43820;BME280;67762;52.476;6.046;2023-05-21T12:54:10;61604.63;;;-141.99;100.00
43820;BME280;67762;52.476;6.046;2023-05-21T12:56:45;61604.63;;;-141.99;100.00
43820;BME280;67762;52.476;6.046;2023-05-21T12:59:16;61604.63;;;-141.99;100.00
43820;BME280;67762;52.476;6.046;2023-05-21T13:01:50;61604.63;;;-141.99;100.00
43820;BME280;67762;52.476;6.046;2023-05-21T13:04:18;61604.63;;;-141.99;100.00
43820;BME280;67762;52.476;6.046;2023-05-21T13:06:43;61604.63;;;-141.99;100.00
43820;BME280;67762;52.476;6.046;2023-05-21T13:09:09;61604.63;;;-141.99;100.00
43820;BME280;67762;52.476;6.046;2023-05-21T13:11:35;61604.63;;;-141.99;100.00
43820;BME280;67762;52.476;6.046;2023-05-21T13:14:00;61604.63;;;-141.99;100.00
43820;BME280;67762;52.476;6.046;2023-05-21T13:16:26;61604.63;;;-141.99;100.00
43820;BME280;67762;52.476;6.046;2023-05-21T13:18:52;61604.63;;;-141.99;100.00
43820;BME280;67762;52.476;6.046;2023-05-21T13:21:17;61604.63;;;-141.99;100.00